sensor_id;sensor_type;location;lat;lon;timestamp;P1;durP1;ratioP1;P2;durP2;ratioP2
74945;SDS011;63509;45.250;38.102;2024-03-06T00:02:06;24.67;;;11.55;;
74945;SDS011;63509;45.250;38.102;2024-03-06T00:04:32;20.50;;;10.40;;
74945;SDS011;63509;45.250;38.102;2024-03-06T00:06:59;21.10;;;9.80;;
74945;SDS011;63509;45.250;38.102;2024-03-06T00:09:25;25.98;;;9.95;;
74945;SDS011;63509;45.250;38.102;2024-03-06T00:11:54;25.73;;;9.32;;
74945;SDS011;63509;45.250;38.102;2024-03-06T00:14:22;21.38;;;9.45;;
74945;SDS011;63509;45.250;38.102;2024-03-06T00:16:49;24.40;;;10.35;;
74945;SDS011;63509;45.250;38.102;2024-03-06T00:19:19;28.70;;;10.98;;
74945;SDS011;63509;45.250;38.102;2024-03-06T00:21:45;31.70;;;9.93;;
74945;SDS011;63509;45.250;38.102;2024-03-06T00:24:15;18.73;;;9.07;;
74945;SDS011;63509;45.250;38.102;2024-03-06T00:26:42;18.38;;;9.07;;
74945;SDS011;63509;45.250;38.102;2024-03-06T00:29:10;26.55;;;10.18;;
74945;SDS011;63509;45.250;38.102;2024-03-06T00:31:37;21.27;;;9.48;;
74945;SDS011;63509;45.250;38.102;2024-03-06T00:34:07;29.65;;;9.73;;
74945;SDS011;63509;45.250;38.102;2024-03-06T00:36:34;15.02;;;8.63;;
74945;SDS011;63509;45.250;38.102;2024-03-06T00:39:00;25.65;;;10.00;;
74945;SDS011;63509;45.250;38.102;2024-03-06T00:41:26;28.30;;;10.50;;
74945;SDS011;63509;45.250;38.102;2024-03-06T00:43:52;20.52;;;8.43;;
74945;SDS011;63509;45.250;38.102;2024-03-06T00:46:18;19.85;;;9.25;;
74945;SDS011;63509;45.250;38.102;2024-03-06T00:48:44;15.63;;;8.48;;
74945;SDS011;63509;45.250;38.102;2024-03-06T00:51:10;18.08;;;7.13;;
74945;SDS011;63509;45.250;38.102;2024-03-06T00:53:36;17.52;;;7.65;;
74945;SDS011;63509;45.250;38.102;2024-03-06T00:56:02;19.38;;;8.63;;
74945;SDS011;63509;45.250;38.102;2024-03-06T00:58:29;16.55;;;8.45;;
74945;SDS011;63509;45.250;38.102;2024-03-06T01:00:55;23.85;;;8.32;;
74945;SDS011;63509;45.250;38.102;2024-03-06T01:03:21;17.65;;;8.80;;
74945;SDS011;63509;45.250;38.102;2024-03-06T01:05:47;18.38;;;9.20;;
74945;SDS011;63509;45.250;38.102;2024-03-06T01:08:13;18.20;;;8.18;;
74945;SDS011;63509;45.250;38.102;2024-03-06T01:10:40;16.88;;;8.95;;
74945;SDS011;63509;45.250;38.102;2024-03-06T01:13:07;18.27;;;8.00;;
74945;SDS011;63509;45.250;38.102;2024-03-06T01:15:36;16.48;;;7.97;;
74945;SDS011;63509;45.250;38.102;2024-03-06T01:18:03;18.08;;;8.63;;
74945;SDS011;63509;45.250;38.102;2024-03-06T01:20:29;17.27;;;9.45;;
74945;SDS011;63509;45.250;38.102;2024-03-06T01:22:55;23.52;;;8.98;;
74945;SDS011;63509;45.250;38.102;2024-03-06T01:25:21;16.40;;;9.02;;
74945;SDS011;63509;45.250;38.102;2024-03-06T01:27:48;19.38;;;9.23;;
74945;SDS011;63509;45.250;38.102;2024-03-06T01:30:14;16.17;;;8.25;;
74945;SDS011;63509;45.250;38.102;2024-03-06T01:32:41;22.48;;;8.32;;
74945;SDS011;63509;45.250;38.102;2024-03-06T01:35:07;19.48;;;8.88;;
74945;SDS011;63509;45.250;38.102;2024-03-06T01:37:33;16.08;;;8.40;;
74945;SDS011;63509;45.250;38.102;2024-03-06T01:39:59;25.00;;;9.07;;
74945;SDS011;63509;45.250;38.102;2024-03-06T01:42:25;15.38;;;7.65;;
74945;SDS011;63509;45.250;38.102;2024-03-06T01:44:51;17.15;;;8.05;;
74945;SDS011;63509;45.250;38.102;2024-03-06T01:47:17;15.32;;;7.72;;
74945;SDS011;63509;45.250;38.102;2024-03-06T01:49:43;15.13;;;7.32;;
74945;SDS011;63509;45.250;38.102;2024-03-06T01:52:09;15.98;;;7.45;;
74945;SDS011;63509;45.250;38.102;2024-03-06T01:54:39;15.15;;;7.90;;
74945;SDS011;63509;45.250;38.102;2024-03-06T01:57:05;15.93;;;7.85;;
74945;SDS011;63509;45.250;38.102;2024-03-06T01:59:33;19.10;;;8.50;;
74945;SDS011;63509;45.250;38.102;2024-03-06T02:01:59;18.30;;;7.63;;
74945;SDS011;63509;45.250;38.102;2024-03-06T02:04:27;22.83;;;8.80;;
74945;SDS011;63509;45.250;38.102;2024-03-06T02:06:53;15.63;;;7.40;;
74945;SDS011;63509;45.250;38.102;2024-03-06T02:09:20;13.52;;;7.97;;
74945;SDS011;63509;45.250;38.102;2024-03-06T02:11:46;20.92;;;10.20;;
74945;SDS011;63509;45.250;38.102;2024-03-06T02:14:12;25.73;;;9.07;;
74945;SDS011;63509;45.250;38.102;2024-03-06T02:16:38;14.75;;;8.60;;
74945;SDS011;63509;45.250;38.102;2024-03-06T02:19:05;19.70;;;8.95;;
74945;SDS011;63509;45.250;38.102;2024-03-06T02:21:31;13.95;;;8.15;;
74945;SDS011;63509;45.250;38.102;2024-03-06T02:23:57;16.73;;;7.90;;
74945;SDS011;63509;45.250;38.102;2024-03-06T02:26:23;14.68;;;8.50;;
74945;SDS011;63509;45.250;38.102;2024-03-06T02:28:50;14.57;;;7.03;;
74945;SDS011;63509;45.250;38.102;2024-03-06T02:31:18;19.15;;;8.50;;
74945;SDS011;63509;45.250;38.102;2024-03-06T02:33:48;14.60;;;8.02;;
74945;SDS011;63509;45.250;38.102;2024-03-06T02:36:18;14.15;;;7.38;;
74945;SDS011;63509;45.250;38.102;2024-03-06T02:38:44;17.60;;;7.90;;
74945;SDS011;63509;45.250;38.102;2024-03-06T02:41:11;25.35;;;9.30;;
74945;SDS011;63509;45.250;38.102;2024-03-06T02:43:39;23.20;;;8.55;;
74945;SDS011;63509;45.250;38.102;2024-03-06T02:46:05;17.80;;;7.57;;
74945;SDS011;63509;45.250;38.102;2024-03-06T02:48:31;18.40;;;8.52;;
74945;SDS011;63509;45.250;38.102;2024-03-06T02:50:57;22.30;;;7.93;;
74945;SDS011;63509;45.250;38.102;2024-03-06T02:53:24;17.10;;;7.68;;
74945;SDS011;63509;45.250;38.102;2024-03-06T02:55:51;15.77;;;7.30;;
74945;SDS011;63509;45.250;38.102;2024-03-06T02:58:17;20.25;;;6.25;;
74945;SDS011;63509;45.250;38.102;2024-03-06T03:00:43;13.60;;;6.85;;
74945;SDS011;63509;45.250;38.102;2024-03-06T03:03:09;18.60;;;7.50;;
74945;SDS011;63509;45.250;38.102;2024-03-06T03:05:38;19.25;;;7.72;;
74945;SDS011;63509;45.250;38.102;2024-03-06T03:08:05;16.73;;;7.43;;
74945;SDS011;63509;45.250;38.102;2024-03-06T03:10:32;15.43;;;8.02;;
74945;SDS011;63509;45.250;38.102;2024-03-06T03:13:00;25.92;;;7.55;;
74945;SDS011;63509;45.250;38.102;2024-03-06T03:15:26;16.48;;;7.35;;
74945;SDS011;63509;45.250;38.102;2024-03-06T03:17:52;21.38;;;8.05;;
74945;SDS011;63509;45.250;38.102;2024-03-06T03:20:18;27.48;;;8.25;;
74945;SDS011;63509;45.250;38.102;2024-03-06T03:22:44;17.75;;;6.75;;
74945;SDS011;63509;45.250;38.102;2024-03-06T03:25:11;16.20;;;7.97;;
74945;SDS011;63509;45.250;38.102;2024-03-06T03:27:37;16.83;;;7.15;;
74945;SDS011;63509;45.250;38.102;2024-03-06T03:30:09;18.38;;;8.25;;
74945;SDS011;63509;45.250;38.102;2024-03-06T03:32:35;17.73;;;7.35;;
74945;SDS011;63509;45.250;38.102;2024-03-06T03:35:05;22.13;;;7.75;;
74945;SDS011;63509;45.250;38.102;2024-03-06T03:37:32;16.38;;;7.93;;
74945;SDS011;63509;45.250;38.102;2024-03-06T03:39:58;18.15;;;7.65;;
74945;SDS011;63509;45.250;38.102;2024-03-06T03:42:24;16.95;;;7.32;;
74945;SDS011;63509;45.250;38.102;2024-03-06T03:44:50;19.83;;;7.40;;
74945;SDS011;63509;45.250;38.102;2024-03-06T03:47:17;17.33;;;7.60;;
74945;SDS011;63509;45.250;38.102;2024-03-06T03:49:43;18.50;;;6.25;;
74945;SDS011;63509;45.250;38.102;2024-03-06T03:52:09;13.90;;;8.57;;
74945;SDS011;63509;45.250;38.102;2024-03-06T03:54:35;23.52;;;7.28;;
74945;SDS011;63509;45.250;38.102;2024-03-06T03:57:01;15.65;;;6.80;;
74945;SDS011;63509;45.250;38.102;2024-03-06T03:59:27;21.88;;;6.75;;
74945;SDS011;63509;45.250;38.102;2024-03-06T04:01:53;28.85;;;7.38;;
74945;SDS011;63509;45.250;38.102;2024-03-06T04:04:22;15.95;;;8.23;;
74945;SDS011;63509;45.250;38.102;2024-03-06T04:06:48;13.70;;;6.95;;
74945;SDS011;63509;45.250;38.102;2024-03-06T04:09:14;15.63;;;6.30;;
74945;SDS011;63509;45.250;38.102;2024-03-06T04:11:41;14.07;;;6.30;;
74945;SDS011;63509;45.250;38.102;2024-03-06T04:14:07;12.05;;;5.53;;
74945;SDS011;63509;45.250;38.102;2024-03-06T04:16:33;23.27;;;6.80;;
74945;SDS011;63509;45.250;38.102;2024-03-06T04:19:00;14.45;;;6.65;;
74945;SDS011;63509;45.250;38.102;2024-03-06T04:21:26;18.17;;;6.68;;
74945;SDS011;63509;45.250;38.102;2024-03-06T04:23:52;16.00;;;6.13;;
74945;SDS011;63509;45.250;38.102;2024-03-06T04:26:19;17.83;;;7.45;;
74945;SDS011;63509;45.250;38.102;2024-03-06T04:28:45;13.68;;;6.05;;
74945;SDS011;63509;45.250;38.102;2024-03-06T04:31:11;16.23;;;6.13;;
74945;SDS011;63509;45.250;38.102;2024-03-06T04:33:37;12.25;;;6.32;;
74945;SDS011;63509;45.250;38.102;2024-03-06T04:36:03;12.38;;;6.00;;
74945;SDS011;63509;45.250;38.102;2024-03-06T04:38:34;22.85;;;6.25;;
74945;SDS011;63509;45.250;38.102;2024-03-06T04:41:00;20.40;;;5.78;;
74945;SDS011;63509;45.250;38.102;2024-03-06T04:43:26;21.63;;;6.93;;
74945;SDS011;63509;45.250;38.102;2024-03-06T04:45:52;14.95;;;6.90;;
74945;SDS011;63509;45.250;38.102;2024-03-06T04:48:18;40.50;;;7.40;;
74945;SDS011;63509;45.250;38.102;2024-03-06T04:50:44;19.90;;;6.15;;
74945;SDS011;63509;45.250;38.102;2024-03-06T04:53:10;16.80;;;5.57;;
74945;SDS011;63509;45.250;38.102;2024-03-06T04:55:37;30.25;;;7.75;;
74945;SDS011;63509;45.250;38.102;2024-03-06T04:58:03;10.95;;;5.65;;
74945;SDS011;63509;45.250;38.102;2024-03-06T05:00:30;17.17;;;5.82;;
74945;SDS011;63509;45.250;38.102;2024-03-06T05:02:56;13.75;;;5.57;;
74945;SDS011;63509;45.250;38.102;2024-03-06T05:05:22;19.75;;;6.03;;
74945;SDS011;63509;45.250;38.102;2024-03-06T05:07:48;12.07;;;5.68;;
74945;SDS011;63509;45.250;38.102;2024-03-06T05:10:14;15.85;;;6.55;;
74945;SDS011;63509;45.250;38.102;2024-03-06T05:12:43;26.92;;;6.30;;
74945;SDS011;63509;45.250;38.102;2024-03-06T05:15:10;10.85;;;5.65;;
74945;SDS011;63509;45.250;38.102;2024-03-06T05:17:37;10.95;;;5.60;;
74945;SDS011;63509;45.250;38.102;2024-03-06T05:20:03;16.77;;;6.25;;
74945;SDS011;63509;45.250;38.102;2024-03-06T05:22:30;10.55;;;6.03;;
74945;SDS011;63509;45.250;38.102;2024-03-06T05:24:56;22.55;;;6.13;;
74945;SDS011;63509;45.250;38.102;2024-03-06T05:27:24;14.77;;;6.05;;
74945;SDS011;63509;45.250;38.102;2024-03-06T05:29:51;20.42;;;6.22;;
74945;SDS011;63509;45.250;38.102;2024-03-06T05:32:18;8.98;;;5.68;;
74945;SDS011;63509;45.250;38.102;2024-03-06T05:34:44;14.88;;;5.13;;
74945;SDS011;63509;45.250;38.102;2024-03-06T05:37:10;11.15;;;5.80;;
74945;SDS011;63509;45.250;38.102;2024-03-06T05:39:37;19.58;;;7.22;;
74945;SDS011;63509;45.250;38.102;2024-03-06T05:42:03;20.90;;;5.78;;
74945;SDS011;63509;45.250;38.102;2024-03-06T05:44:30;10.25;;;5.47;;
74945;SDS011;63509;45.250;38.102;2024-03-06T05:47:01;9.68;;;5.28;;
74945;SDS011;63509;45.250;38.102;2024-03-06T05:49:28;13.77;;;5.18;;
74945;SDS011;63509;45.250;38.102;2024-03-06T05:51:54;13.88;;;6.10;;
74945;SDS011;63509;45.250;38.102;2024-03-06T05:54:21;29.23;;;7.82;;
74945;SDS011;63509;45.250;38.102;2024-03-06T05:56:48;19.50;;;5.63;;
74945;SDS011;63509;45.250;38.102;2024-03-06T05:59:17;10.93;;;5.78;;
74945;SDS011;63509;45.250;38.102;2024-03-06T06:01:44;31.20;;;6.55;;
74945;SDS011;63509;45.250;38.102;2024-03-06T06:04:11;16.85;;;5.82;;
74945;SDS011;63509;45.250;38.102;2024-03-06T06:06:39;13.07;;;5.72;;
74945;SDS011;63509;45.250;38.102;2024-03-06T06:09:05;13.82;;;6.97;;
74945;SDS011;63509;45.250;38.102;2024-03-06T06:11:32;10.55;;;5.38;;
74945;SDS011;63509;45.250;38.102;2024-03-06T06:14:01;13.13;;;6.03;;
74945;SDS011;63509;45.250;38.102;2024-03-06T06:16:34;13.48;;;5.50;;
74945;SDS011;63509;45.250;38.102;2024-03-06T06:19:01;21.77;;;6.22;;
74945;SDS011;63509;45.250;38.102;2024-03-06T06:21:27;11.70;;;5.63;;
74945;SDS011;63509;45.250;38.102;2024-03-06T06:23:53;15.18;;;5.97;;
74945;SDS011;63509;45.250;38.102;2024-03-06T06:26:19;17.38;;;6.30;;
74945;SDS011;63509;45.250;38.102;2024-03-06T06:28:46;13.00;;;6.28;;
74945;SDS011;63509;45.250;38.102;2024-03-06T06:31:12;10.40;;;5.30;;
74945;SDS011;63509;45.250;38.102;2024-03-06T06:33:38;16.25;;;6.53;;
74945;SDS011;63509;45.250;38.102;2024-03-06T06:36:04;18.52;;;6.25;;
74945;SDS011;63509;45.250;38.102;2024-03-06T06:38:31;19.30;;;7.30;;
74945;SDS011;63509;45.250;38.102;2024-03-06T06:40:57;18.83;;;8.00;;
74945;SDS011;63509;45.250;38.102;2024-03-06T06:43:23;20.83;;;6.57;;
74945;SDS011;63509;45.250;38.102;2024-03-06T06:45:49;28.42;;;6.85;;
74945;SDS011;63509;45.250;38.102;2024-03-06T06:48:16;11.63;;;6.55;;
74945;SDS011;63509;45.250;38.102;2024-03-06T06:50:46;15.52;;;6.53;;
74945;SDS011;63509;45.250;38.102;2024-03-06T06:53:13;30.15;;;7.50;;
74945;SDS011;63509;45.250;38.102;2024-03-06T06:55:39;23.80;;;7.32;;
74945;SDS011;63509;45.250;38.102;2024-03-06T06:58:06;20.80;;;6.70;;
74945;SDS011;63509;45.250;38.102;2024-03-06T07:00:32;17.05;;;6.20;;
74945;SDS011;63509;45.250;38.102;2024-03-06T07:02:58;14.48;;;7.03;;
74945;SDS011;63509;45.250;38.102;2024-03-06T07:05:25;13.70;;;6.22;;
74945;SDS011;63509;45.250;38.102;2024-03-06T07:07:51;11.85;;;6.63;;
74945;SDS011;63509;45.250;38.102;2024-03-06T07:10:19;14.30;;;6.15;;
74945;SDS011;63509;45.250;38.102;2024-03-06T07:12:46;19.95;;;6.20;;
74945;SDS011;63509;45.250;38.102;2024-03-06T07:15:12;14.52;;;7.03;;
74945;SDS011;63509;45.250;38.102;2024-03-06T07:17:38;17.33;;;6.47;;
74945;SDS011;63509;45.250;38.102;2024-03-06T07:20:04;18.92;;;7.07;;
74945;SDS011;63509;45.250;38.102;2024-03-06T07:22:31;17.27;;;7.30;;
74945;SDS011;63509;45.250;38.102;2024-03-06T07:24:59;13.23;;;7.90;;
74945;SDS011;63509;45.250;38.102;2024-03-06T07:27:27;12.95;;;6.40;;
74945;SDS011;63509;45.250;38.102;2024-03-06T07:29:53;19.77;;;7.25;;
74945;SDS011;63509;45.250;38.102;2024-03-06T07:32:19;23.98;;;7.47;;
74945;SDS011;63509;45.250;38.102;2024-03-06T07:34:46;14.40;;;7.13;;
74945;SDS011;63509;45.250;38.102;2024-03-06T07:37:14;21.05;;;7.63;;
74945;SDS011;63509;45.250;38.102;2024-03-06T07:39:41;13.80;;;7.15;;
74945;SDS011;63509;45.250;38.102;2024-03-06T07:42:10;26.52;;;7.78;;
74945;SDS011;63509;45.250;38.102;2024-03-06T07:44:36;23.33;;;7.65;;
74945;SDS011;63509;45.250;38.102;2024-03-06T07:47:02;17.42;;;8.13;;
74945;SDS011;63509;45.250;38.102;2024-03-06T07:49:29;15.68;;;7.40;;
74945;SDS011;63509;45.250;38.102;2024-03-06T07:51:57;12.20;;;7.13;;
74945;SDS011;63509;45.250;38.102;2024-03-06T07:54:23;24.02;;;7.03;;
74945;SDS011;63509;45.250;38.102;2024-03-06T07:56:49;17.40;;;7.28;;
74945;SDS011;63509;45.250;38.102;2024-03-06T07:59:16;14.25;;;6.40;;
74945;SDS011;63509;45.250;38.102;2024-03-06T08:01:43;24.67;;;6.18;;
74945;SDS011;63509;45.250;38.102;2024-03-06T08:04:09;17.75;;;6.50;;
74945;SDS011;63509;45.250;38.102;2024-03-06T08:06:36;17.23;;;6.75;;
74945;SDS011;63509;45.250;38.102;2024-03-06T08:09:02;14.98;;;6.90;;
74945;SDS011;63509;45.250;38.102;2024-03-06T08:11:29;13.80;;;6.13;;
74945;SDS011;63509;45.250;38.102;2024-03-06T08:13:59;13.65;;;6.88;;
74945;SDS011;63509;45.250;38.102;2024-03-06T08:16:26;15.35;;;6.00;;
74945;SDS011;63509;45.250;38.102;2024-03-06T08:18:54;15.82;;;5.88;;
74945;SDS011;63509;45.250;38.102;2024-03-06T08:21:28;14.60;;;5.55;;
74945;SDS011;63509;45.250;38.102;2024-03-06T08:26:20;11.48;;;5.18;;
74945;SDS011;63509;45.250;38.102;2024-03-06T08:28:46;23.95;;;6.25;;
74945;SDS011;63509;45.250;38.102;2024-03-06T08:31:12;18.10;;;6.53;;
74945;SDS011;63509;45.250;38.102;2024-03-06T08:33:38;28.25;;;6.57;;
74945;SDS011;63509;45.250;38.102;2024-03-06T08:36:04;12.65;;;6.18;;
74945;SDS011;63509;45.250;38.102;2024-03-06T08:38:31;16.00;;;6.20;;
74945;SDS011;63509;45.250;38.102;2024-03-06T08:40:57;11.32;;;5.05;;
74945;SDS011;63509;45.250;38.102;2024-03-06T08:43:23;20.50;;;6.30;;
74945;SDS011;63509;45.250;38.102;2024-03-06T08:45:49;14.18;;;6.72;;
74945;SDS011;63509;45.250;38.102;2024-03-06T08:48:16;11.57;;;5.43;;
74945;SDS011;63509;45.250;38.102;2024-03-06T08:50:43;15.60;;;5.72;;
74945;SDS011;63509;45.250;38.102;2024-03-06T08:53:11;21.63;;;5.88;;
74945;SDS011;63509;45.250;38.102;2024-03-06T08:55:39;12.55;;;4.90;;
74945;SDS011;63509;45.250;38.102;2024-03-06T08:58:05;17.23;;;5.90;;
74945;SDS011;63509;45.250;38.102;2024-03-06T09:00:31;22.38;;;5.85;;
74945;SDS011;63509;45.250;38.102;2024-03-06T09:02:57;18.15;;;5.32;;
74945;SDS011;63509;45.250;38.102;2024-03-06T09:05:24;17.27;;;5.40;;
74945;SDS011;63509;45.250;38.102;2024-03-06T09:07:50;13.90;;;5.63;;
74945;SDS011;63509;45.250;38.102;2024-03-06T09:10:16;11.25;;;4.85;;
74945;SDS011;63509;45.250;38.102;2024-03-06T09:12:44;15.18;;;5.38;;
74945;SDS011;63509;45.250;38.102;2024-03-06T09:15:11;14.38;;;5.43;;
74945;SDS011;63509;45.250;38.102;2024-03-06T09:17:37;16.33;;;4.80;;
74945;SDS011;63509;45.250;38.102;2024-03-06T09:20:04;9.20;;;4.82;;
74945;SDS011;63509;45.250;38.102;2024-03-06T09:22:41;10.27;;;4.43;;
74945;SDS011;63509;45.250;38.102;2024-03-06T09:25:08;11.98;;;5.30;;
74945;SDS011;63509;45.250;38.102;2024-03-06T09:27:34;17.67;;;5.47;;
74945;SDS011;63509;45.250;38.102;2024-03-06T09:30:00;8.60;;;4.18;;
74945;SDS011;63509;45.250;38.102;2024-03-06T09:32:28;17.25;;;5.50;;
74945;SDS011;63509;45.250;38.102;2024-03-06T09:34:54;8.55;;;4.38;;
74945;SDS011;63509;45.250;38.102;2024-03-06T09:37:20;10.73;;;4.38;;
74945;SDS011;63509;45.250;38.102;2024-03-06T09:39:46;12.32;;;4.70;;
74945;SDS011;63509;45.250;38.102;2024-03-06T09:42:15;10.60;;;4.38;;
74945;SDS011;63509;45.250;38.102;2024-03-06T09:44:41;12.50;;;4.50;;
74945;SDS011;63509;45.250;38.102;2024-03-06T09:47:08;12.93;;;4.82;;
74945;SDS011;63509;45.250;38.102;2024-03-06T09:49:39;15.30;;;4.25;;
74945;SDS011;63509;45.250;38.102;2024-03-06T09:52:06;15.48;;;4.90;;
74945;SDS011;63509;45.250;38.102;2024-03-06T09:54:32;11.10;;;4.35;;
74945;SDS011;63509;45.250;38.102;2024-03-06T09:56:59;19.08;;;4.55;;
74945;SDS011;63509;45.250;38.102;2024-03-06T09:59:25;11.38;;;4.43;;
74945;SDS011;63509;45.250;38.102;2024-03-06T10:01:56;12.18;;;4.03;;
74945;SDS011;63509;45.250;38.102;2024-03-06T10:04:23;10.00;;;4.57;;
74945;SDS011;63509;45.250;38.102;2024-03-06T10:06:54;18.25;;;4.60;;
74945;SDS011;63509;45.250;38.102;2024-03-06T10:09:21;18.73;;;4.53;;
74945;SDS011;63509;45.250;38.102;2024-03-06T10:11:48;14.68;;;4.30;;
74945;SDS011;63509;45.250;38.102;2024-03-06T10:14:15;52.47;;;5.82;;
74945;SDS011;63509;45.250;38.102;2024-03-06T10:16:54;21.42;;;3.63;;
74945;SDS011;63509;45.250;38.102;2024-03-06T10:19:22;12.02;;;3.92;;
74945;SDS011;63509;45.250;38.102;2024-03-06T10:21:50;16.67;;;4.30;;
74945;SDS011;63509;45.250;38.102;2024-03-06T10:24:23;17.52;;;4.68;;
74945;SDS011;63509;45.250;38.102;2024-03-06T10:26:51;7.10;;;4.47;;
74945;SDS011;63509;45.250;38.102;2024-03-06T10:29:21;18.45;;;4.57;;
74945;SDS011;63509;45.250;38.102;2024-03-06T10:34:26;23.58;;;7.20;;
74945;SDS011;63509;45.250;38.102;2024-03-06T10:36:57;15.48;;;6.00;;
74945;SDS011;63509;45.250;38.102;2024-03-06T10:39:24;17.13;;;6.78;;
74945;SDS011;63509;45.250;38.102;2024-03-06T10:41:52;16.90;;;5.70;;
74945;SDS011;63509;45.250;38.102;2024-03-06T10:44:22;23.55;;;5.95;;
74945;SDS011;63509;45.250;38.102;2024-03-06T10:49:20;14.88;;;5.55;;
74945;SDS011;63509;45.250;38.102;2024-03-06T10:51:47;12.27;;;4.80;;
74945;SDS011;63509;45.250;38.102;2024-03-06T10:54:14;12.88;;;4.63;;
74945;SDS011;63509;45.250;38.102;2024-03-06T10:56:41;9.02;;;4.10;;
74945;SDS011;63509;45.250;38.102;2024-03-06T10:59:11;16.30;;;5.18;;
74945;SDS011;63509;45.250;38.102;2024-03-06T11:01:39;12.27;;;5.32;;
74945;SDS011;63509;45.250;38.102;2024-03-06T11:04:05;33.30;;;5.07;;
74945;SDS011;63509;45.250;38.102;2024-03-06T11:06:33;18.33;;;4.68;;
74945;SDS011;63509;45.250;38.102;2024-03-06T11:09:00;19.23;;;4.97;;
74945;SDS011;63509;45.250;38.102;2024-03-06T11:11:28;12.23;;;4.72;;
74945;SDS011;63509;45.250;38.102;2024-03-06T11:14:00;11.85;;;4.82;;
74945;SDS011;63509;45.250;38.102;2024-03-06T11:16:30;17.08;;;5.32;;
74945;SDS011;63509;45.250;38.102;2024-03-06T11:19:05;11.05;;;4.05;;
74945;SDS011;63509;45.250;38.102;2024-03-06T11:21:34;20.25;;;4.25;;
74945;SDS011;63509;45.250;38.102;2024-03-06T11:24:13;10.15;;;3.88;;
74945;SDS011;63509;45.250;38.102;2024-03-06T11:27:23;28.23;;;4.30;;
74945;SDS011;63509;45.250;38.102;2024-03-06T11:32:37;14.07;;;3.75;;
74945;SDS011;63509;45.250;38.102;2024-03-06T11:35:22;12.60;;;3.78;;
74945;SDS011;63509;45.250;38.102;2024-03-06T11:37:49;32.58;;;4.47;;
74945;SDS011;63509;45.250;38.102;2024-03-06T11:40:24;25.65;;;3.95;;
74945;SDS011;63509;45.250;38.102;2024-03-06T11:42:50;6.57;;;3.35;;
74945;SDS011;63509;45.250;38.102;2024-03-06T11:45:17;20.35;;;5.18;;
74945;SDS011;63509;45.250;38.102;2024-03-06T11:48:00;14.43;;;4.35;;
74945;SDS011;63509;45.250;38.102;2024-03-06T11:50:28;15.95;;;4.60;;
74945;SDS011;63509;45.250;38.102;2024-03-06T11:52:58;12.75;;;4.60;;
74945;SDS011;63509;45.250;38.102;2024-03-06T11:55:24;10.32;;;4.47;;
74945;SDS011;63509;45.250;38.102;2024-03-06T11:57:51;20.67;;;4.22;;
74945;SDS011;63509;45.250;38.102;2024-03-06T12:00:22;13.27;;;4.43;;
74945;SDS011;63509;45.250;38.102;2024-03-06T12:02:52;14.13;;;4.93;;
74945;SDS011;63509;45.250;38.102;2024-03-06T12:05:18;18.90;;;5.38;;
74945;SDS011;63509;45.250;38.102;2024-03-06T12:07:45;11.32;;;4.63;;
74945;SDS011;63509;45.250;38.102;2024-03-06T12:10:18;17.50;;;5.43;;
74945;SDS011;63509;45.250;38.102;2024-03-06T12:12:44;14.60;;;6.82;;
74945;SDS011;63509;45.250;38.102;2024-03-06T12:15:11;28.35;;;5.40;;
74945;SDS011;63509;45.250;38.102;2024-03-06T12:17:47;9.93;;;4.25;;
74945;SDS011;63509;45.250;38.102;2024-03-06T12:20:16;8.98;;;4.47;;
74945;SDS011;63509;45.250;38.102;2024-03-06T12:22:48;12.95;;;4.22;;
74945;SDS011;63509;45.250;38.102;2024-03-06T12:25:22;10.43;;;4.95;;
74945;SDS011;63509;45.250;38.102;2024-03-06T12:27:50;14.70;;;4.60;;
74945;SDS011;63509;45.250;38.102;2024-03-06T12:30:17;14.45;;;4.75;;
74945;SDS011;63509;45.250;38.102;2024-03-06T12:33:09;19.52;;;5.05;;
74945;SDS011;63509;45.250;38.102;2024-03-06T12:35:35;19.88;;;5.80;;
74945;SDS011;63509;45.250;38.102;2024-03-06T12:38:17;11.15;;;5.05;;
74945;SDS011;63509;45.250;38.102;2024-03-06T12:40:43;19.98;;;5.35;;
74945;SDS011;63509;45.250;38.102;2024-03-06T12:43:09;16.42;;;4.97;;
74945;SDS011;63509;45.250;38.102;2024-03-06T12:45:36;9.45;;;4.30;;
74945;SDS011;63509;45.250;38.102;2024-03-06T12:48:03;7.15;;;3.78;;
74945;SDS011;63509;45.250;38.102;2024-03-06T12:50:31;17.90;;;5.20;;
74945;SDS011;63509;45.250;38.102;2024-03-06T12:52:57;10.55;;;4.25;;
74945;SDS011;63509;45.250;38.102;2024-03-06T12:55:24;8.05;;;3.80;;
74945;SDS011;63509;45.250;38.102;2024-03-06T12:57:51;14.35;;;4.25;;
74945;SDS011;63509;45.250;38.102;2024-03-06T13:00:17;7.10;;;4.00;;
74945;SDS011;63509;45.250;38.102;2024-03-06T13:02:44;19.88;;;4.97;;
74945;SDS011;63509;45.250;38.102;2024-03-06T13:05:11;15.48;;;4.75;;
74945;SDS011;63509;45.250;38.102;2024-03-06T13:07:38;13.13;;;5.75;;
74945;SDS011;63509;45.250;38.102;2024-03-06T13:10:07;19.05;;;4.55;;
74945;SDS011;63509;45.250;38.102;2024-03-06T13:12:38;11.98;;;4.25;;
74945;SDS011;63509;45.250;38.102;2024-03-06T13:15:05;13.48;;;4.85;;
74945;SDS011;63509;45.250;38.102;2024-03-06T13:17:33;13.05;;;3.97;;
74945;SDS011;63509;45.250;38.102;2024-03-06T13:19:59;8.38;;;3.97;;
74945;SDS011;63509;45.250;38.102;2024-03-06T13:22:28;17.17;;;4.03;;
74945;SDS011;63509;45.250;38.102;2024-03-06T13:24:55;9.77;;;3.67;;
74945;SDS011;63509;45.250;38.102;2024-03-06T13:27:22;11.27;;;4.10;;
74945;SDS011;63509;45.250;38.102;2024-03-06T13:29:50;17.15;;;4.78;;
74945;SDS011;63509;45.250;38.102;2024-03-06T13:32:16;21.67;;;3.60;;
74945;SDS011;63509;45.250;38.102;2024-03-06T13:34:43;10.98;;;4.55;;
74945;SDS011;63509;45.250;38.102;2024-03-06T13:37:09;19.88;;;4.55;;
74945;SDS011;63509;45.250;38.102;2024-03-06T13:39:35;17.20;;;4.80;;
74945;SDS011;63509;45.250;38.102;2024-03-06T13:42:02;10.85;;;3.88;;
74945;SDS011;63509;45.250;38.102;2024-03-06T13:44:28;8.95;;;4.40;;
74945;SDS011;63509;45.250;38.102;2024-03-06T13:46:55;14.23;;;5.05;;
74945;SDS011;63509;45.250;38.102;2024-03-06T13:49:37;13.73;;;4.10;;
74945;SDS011;63509;45.250;38.102;2024-03-06T13:52:05;9.23;;;3.88;;
74945;SDS011;63509;45.250;38.102;2024-03-06T13:54:33;14.02;;;4.43;;
74945;SDS011;63509;45.250;38.102;2024-03-06T13:56:59;20.00;;;4.05;;
74945;SDS011;63509;45.250;38.102;2024-03-06T13:59:32;12.32;;;5.45;;
74945;SDS011;63509;45.250;38.102;2024-03-06T14:01:59;13.90;;;4.43;;
74945;SDS011;63509;45.250;38.102;2024-03-06T14:04:26;19.77;;;5.07;;
74945;SDS011;63509;45.250;38.102;2024-03-06T14:06:52;20.23;;;4.88;;
74945;SDS011;63509;45.250;38.102;2024-03-06T14:09:18;19.42;;;5.75;;
74945;SDS011;63509;45.250;38.102;2024-03-06T14:11:45;12.27;;;4.70;;
74945;SDS011;63509;45.250;38.102;2024-03-06T14:14:11;11.80;;;4.65;;
74945;SDS011;63509;45.250;38.102;2024-03-06T14:16:39;12.27;;;5.85;;
74945;SDS011;63509;45.250;38.102;2024-03-06T14:19:05;12.75;;;4.97;;
74945;SDS011;63509;45.250;38.102;2024-03-06T14:21:31;12.80;;;5.00;;
74945;SDS011;63509;45.250;38.102;2024-03-06T14:23:58;15.45;;;5.35;;
74945;SDS011;63509;45.250;38.102;2024-03-06T14:26:25;9.70;;;4.63;;
74945;SDS011;63509;45.250;38.102;2024-03-06T14:28:53;15.88;;;5.28;;
74945;SDS011;63509;45.250;38.102;2024-03-06T14:31:19;12.75;;;4.72;;
74945;SDS011;63509;45.250;38.102;2024-03-06T14:33:45;15.00;;;4.85;;